Ecokeeper — SVTY — position and weather

sailwx.info

Track history (hours):
 
Tides and Currents Weather Stations Pressure Air Temp Water Temp Dewpoint Dewpoint Depression Visibility Wind Speed Wind Dir Waves Ship Positions

Ecokeeper

Last reported at 2015-Aug-27 18:18 UTC. Time now 2015-Aug-30 01:33 UTC.
Position N 37°57' E 023°34'.

Length 90 m; draft 4.2 m.

Type: Tanker. MMSI: 240689000.

Date/timePositionNaut miles runAvg speedWind from/ knotsBaromVisibWave heightAir tempDewpointWater temp
2015-Aug-27 18:18N 37°57' E 023°34'2 3.2
2015-Aug-27 17:33N 37°57' E 023°37'0 0.2
2015-Aug-27 16:33N 37°57' E 023°37'0 0.0
2015-Aug-27 15:34N 37°57' E 023°37'0 0.0
2015-Aug-27 14:34N 37°57' E 023°37'0 0.0
2015-Aug-27 13:33N 37°57' E 023°37'0 0.0
2015-Aug-27 12:33N 37°57' E 023°37'0 0.0
2015-Aug-27 11:33N 37°57' E 023°37'0 0.0
2015-Aug-27 10:33N 37°57' E 023°37'0 0.0
2015-Aug-27 09:33N 37°57' E 023°37'0 0.0
2015-Aug-27 08:33N 37°57' E 023°37'0 0.0
2015-Aug-27 07:33N 37°57' E 023°37'0 0.0
2015-Aug-27 06:33N 37°57' E 023°37'1 0.8
2015-Aug-27 05:33N 37°57' E 023°36'2 0.0
2015-Aug-25 15:33N 37°57' E 023°34'1 1.1
2015-Aug-25 14:33N 37°57' E 023°35'1 1.4
2015-Aug-25 13:33N 37°57' E 023°37'0 0.0
2015-Aug-25 12:33N 37°57' E 023°37'0 0.0
2015-Aug-25 11:33N 37°57' E 023°37'0 0.0
2015-Aug-25 10:33N 37°57' E 023°37'0 0.0
2015-Aug-25 09:33N 37°57' E 023°37'0 0.0
2015-Aug-25 08:33N 37°57' E 023°37'0 0.0
2015-Aug-25 07:33N 37°57' E 023°37'0 0.0
2015-Aug-25 06:33N 37°57' E 023°37'1 0.7
2015-Aug-25 05:33N 37°57' E 023°36'2 0.2
2015-Aug-24 18:33N 37°57' E 023°34'5 4.7
2015-Aug-24 17:33N 37°53' E 023°31'1 0.8
2015-Aug-24 16:33N 37°52' E 023°31'0 0.0
2015-Aug-24 15:33N 37°52' E 023°31'0 0.0
2015-Aug-24 14:33N 37°52' E 023°31'0 0.0
2015-Aug-24 13:33N 37°52' E 023°31'0 0.0
2015-Aug-24 12:33N 37°52' E 023°31'0 0.0
2015-Aug-24 11:33N 37°52' E 023°31'0 0.0
2015-Aug-24 10:33N 37°52' E 023°31'0 0.0
2015-Aug-24 09:33N 37°52' E 023°31'2 1.9
2015-Aug-24 08:33N 37°50' E 023°31'0 0.3
2015-Aug-24 07:32N 37°50' E 023°31'0 0.0
2015-Aug-24 06:33N 37°50' E 023°31'0 0.2
2015-Aug-24 05:24N 37°50' E 023°31'7 8.6
2015-Aug-24 04:34N 37°57' E 023°35'1 0.0
2015-Aug-22 13:14N 37°57' E 023°34'2 2.7
2015-Aug-22 12:34N 37°55' E 023°34'3 2.8
2015-Aug-22 11:34N 37°53' E 023°32'0 0.0
2015-Aug-22 10:34N 37°53' E 023°32'0 0.0
2015-Aug-22 09:34N 37°53' E 023°32'1 0.9
2015-Aug-22 08:33N 37°53' E 023°33'4 4.1
2015-Aug-22 07:34N 37°57' E 023°34'0 0.0
2015-Aug-22 06:33N 37°57' E 023°34'0 0.0
2015-Aug-21 17:13N 37°57' E 023°34'3 3.8
2015-Aug-21 16:34N 37°54' E 023°34'2 2.4
2015-Aug-21 15:33N 37°52' E 023°33'0 0.0
2015-Aug-21 14:33N 37°52' E 023°33'0 0.0
2015-Aug-21 13:34N 37°52' E 023°33'0 0.2
2015-Aug-21 12:34N 37°52' E 023°33'0 0.1
2015-Aug-21 11:34N 37°52' E 023°33'0 0.0
2015-Aug-21 10:33N 37°52' E 023°33'0 0.2
2015-Aug-21 09:34N 37°52' E 023°33'0 0.2
2015-Aug-21 08:34N 37°52' E 023°33'5 5.4
2015-Aug-21 07:34N 37°57' E 023°33'5 4.7
2015-Aug-21 06:33N 38°02' E 023°36'0 0.0
2015-Aug-21 05:33N 38°02' E 023°36'0 0.0
2015-Aug-21 04:32N 38°02' E 023°36'0 0.0
2015-Aug-21 03:33N 38°02' E 023°36'0 0.0
2015-Aug-21 02:14N 38°02' E 023°36'0 0.0
2015-Aug-21 01:31N 38°02' E 023°36'0 0.0
2015-Aug-21 00:33N 38°02' E 023°36'0 0.0
2015-Aug-20 23:30N 38°02' E 023°36'0 0.0
2015-Aug-20 22:32N 38°02' E 023°36'0 0.0
2015-Aug-20 21:33N 38°02' E 023°36'0 0.0
2015-Aug-20 20:33N 38°02' E 023°36'0 0.0
2015-Aug-20 19:30N 38°02' E 023°36'0 0.0
2015-Aug-20 18:33N 38°02' E 023°36'0 0.0
2015-Aug-20 17:33N 38°02' E 023°36'0 0.0
2015-Aug-20 16:33N 38°02' E 023°36'0 0.0
2015-Aug-20 15:32N 38°02' E 023°36'0 0.0
2015-Aug-20 14:32N 38°02' E 023°36'0 0.0
2015-Aug-20 13:33N 38°02' E 023°36'0 0.0
2015-Aug-20 12:33N 38°02' E 023°36'0 0.0
2015-Aug-20 11:28N 38°02' E 023°36'0 0.0
2015-Aug-20 10:33N 38°02' E 023°36'0 0.4
2015-Aug-20 09:34N 38°02' E 023°35'0 0.0
2015-Aug-20 08:32N 38°02' E 023°35'0 0.0
2015-Aug-20 07:34N 38°02' E 023°35'0 0.1
2015-Aug-20 06:32N 38°02' E 023°35'4 3.9
2015-Aug-20 05:33N 37°58' E 023°33'  
Track history (hours):
 
Tides and Currents Weather Stations Pressure Air Temp Water Temp Dewpoint Dewpoint Depression Visibility Wind Speed Wind Dir Waves Ship Positions

Ecokeeper

Last reported at 2015-Aug-27 18:18 UTC. Time now 2015-Aug-30 01:33 UTC.
Position N 37°57' E 023°34'.

Length 90 m; draft 4.2 m.

Type: Tanker. MMSI: 240689000.

Date/timePositionNaut miles runAvg speedWind from/ knotsBaromVisibWave heightAir tempDewpointWater temp
2015-Aug-27 18:18N 37°57' E 023°34'2 3.2
2015-Aug-27 17:33N 37°57' E 023°37'0 0.2
2015-Aug-27 16:33N 37°57' E 023°37'0 0.0
2015-Aug-27 15:34N 37°57' E 023°37'0 0.0
2015-Aug-27 14:34N 37°57' E 023°37'0 0.0
2015-Aug-27 13:33N 37°57' E 023°37'0 0.0
2015-Aug-27 12:33N 37°57' E 023°37'0 0.0
2015-Aug-27 11:33N 37°57' E 023°37'0 0.0
2015-Aug-27 10:33N 37°57' E 023°37'0 0.0
2015-Aug-27 09:33N 37°57' E 023°37'0 0.0
2015-Aug-27 08:33N 37°57' E 023°37'0 0.0
2015-Aug-27 07:33N 37°57' E 023°37'0 0.0
2015-Aug-27 06:33N 37°57' E 023°37'1 0.8
2015-Aug-27 05:33N 37°57' E 023°36'2 0.0
2015-Aug-25 15:33N 37°57' E 023°34'1 1.1
2015-Aug-25 14:33N 37°57' E 023°35'1 1.4
2015-Aug-25 13:33N 37°57' E 023°37'0 0.0
2015-Aug-25 12:33N 37°57' E 023°37'0 0.0
2015-Aug-25 11:33N 37°57' E 023°37'0 0.0
2015-Aug-25 10:33N 37°57' E 023°37'0 0.0
2015-Aug-25 09:33N 37°57' E 023°37'0 0.0
2015-Aug-25 08:33N 37°57' E 023°37'0 0.0
2015-Aug-25 07:33N 37°57' E 023°37'0 0.0
2015-Aug-25 06:33N 37°57' E 023°37'1 0.7
2015-Aug-25 05:33N 37°57' E 023°36'2 0.2
2015-Aug-24 18:33N 37°57' E 023°34'5 4.7
2015-Aug-24 17:33N 37°53' E 023°31'1 0.8
2015-Aug-24 16:33N 37°52' E 023°31'0 0.0
2015-Aug-24 15:33N 37°52' E 023°31'0 0.0
2015-Aug-24 14:33N 37°52' E 023°31'0 0.0
2015-Aug-24 13:33N 37°52' E 023°31'0 0.0
2015-Aug-24 12:33N 37°52' E 023°31'0 0.0
2015-Aug-24 11:33N 37°52' E 023°31'0 0.0
2015-Aug-24 10:33N 37°52' E 023°31'0 0.0
2015-Aug-24 09:33N 37°52' E 023°31'2 1.9
2015-Aug-24 08:33N 37°50' E 023°31'0 0.3
2015-Aug-24 07:32N 37°50' E 023°31'0 0.0
2015-Aug-24 06:33N 37°50' E 023°31'0 0.2
2015-Aug-24 05:24N 37°50' E 023°31'7 8.6
2015-Aug-24 04:34N 37°57' E 023°35'1 0.0
2015-Aug-22 13:14N 37°57' E 023°34'2 2.7
2015-Aug-22 12:34N 37°55' E 023°34'3 2.8
2015-Aug-22 11:34N 37°53' E 023°32'0 0.0
2015-Aug-22 10:34N 37°53' E 023°32'0 0.0
2015-Aug-22 09:34N 37°53' E 023°32'1 0.9
2015-Aug-22 08:33N 37°53' E 023°33'4 4.1
2015-Aug-22 07:34N 37°57' E 023°34'0 0.0
2015-Aug-22 06:33N 37°57' E 023°34'0 0.0
2015-Aug-21 17:13N 37°57' E 023°34'3 3.8
2015-Aug-21 16:34N 37°54' E 023°34'2 2.4
2015-Aug-21 15:33N 37°52' E 023°33'0 0.0
2015-Aug-21 14:33N 37°52' E 023°33'0 0.0
2015-Aug-21 13:34N 37°52' E 023°33'0 0.2
2015-Aug-21 12:34N 37°52' E 023°33'0 0.1
2015-Aug-21 11:34N 37°52' E 023°33'0 0.0
2015-Aug-21 10:33N 37°52' E 023°33'0 0.2
2015-Aug-21 09:34N 37°52' E 023°33'0 0.2
2015-Aug-21 08:34N 37°52' E 023°33'5 5.4
2015-Aug-21 07:34N 37°57' E 023°33'5 4.7
2015-Aug-21 06:33N 38°02' E 023°36'0 0.0
2015-Aug-21 05:33N 38°02' E 023°36'0 0.0
2015-Aug-21 04:32N 38°02' E 023°36'0 0.0
2015-Aug-21 03:33N 38°02' E 023°36'0 0.0
2015-Aug-21 02:14N 38°02' E 023°36'0 0.0
2015-Aug-21 01:31N 38°02' E 023°36'0 0.0
2015-Aug-21 00:33N 38°02' E 023°36'0 0.0
2015-Aug-20 23:30N 38°02' E 023°36'0 0.0
2015-Aug-20 22:32N 38°02' E 023°36'0 0.0
2015-Aug-20 21:33N 38°02' E 023°36'0 0.0
2015-Aug-20 20:33N 38°02' E 023°36'0 0.0
2015-Aug-20 19:30N 38°02' E 023°36'0 0.0
2015-Aug-20 18:33N 38°02' E 023°36'0 0.0
2015-Aug-20 17:33N 38°02' E 023°36'0 0.0
2015-Aug-20 16:33N 38°02' E 023°36'0 0.0
2015-Aug-20 15:32N 38°02' E 023°36'0 0.0
2015-Aug-20 14:32N 38°02' E 023°36'0 0.0
2015-Aug-20 13:33N 38°02' E 023°36'0 0.0
2015-Aug-20 12:33N 38°02' E 023°36'0 0.0
2015-Aug-20 11:28N 38°02' E 023°36'0 0.0
2015-Aug-20 10:33N 38°02' E 023°36'0 0.4
2015-Aug-20 09:34N 38°02' E 023°35'0 0.0
2015-Aug-20 08:32N 38°02' E 023°35'0 0.0
2015-Aug-20 07:34N 38°02' E 023°35'0 0.1
2015-Aug-20 06:32N 38°02' E 023°35'4 3.9
2015-Aug-20 05:33N 37°58' E 023°33'  

Dump ship's entire track history